createdAt,value
2023-04-28T00:01:45.879Z,11.95
2023-04-28T00:04:12.966Z,12.00
2023-04-28T00:06:40.246Z,14.13
2023-04-28T00:09:11.176Z,11.45
2023-04-28T00:11:38.712Z,29.30
2023-04-28T00:14:06.038Z,18.13
2023-04-28T00:16:32.855Z,11.93
2023-04-28T00:18:59.636Z,10.60
2023-04-28T00:21:26.515Z,17.20
2023-04-28T00:23:53.622Z,13.35
2023-04-28T00:26:21.015Z,16.33
2023-04-28T00:28:48.026Z,13.00
2023-04-28T00:31:16.424Z,15.55
2023-04-28T00:33:44.922Z,14.23
2023-04-28T00:36:12.210Z,10.38
2023-04-28T00:38:39.082Z,10.77
2023-04-28T00:41:06.551Z,15.57
2023-04-28T00:43:43.607Z,11.63
2023-04-28T00:46:11.083Z,9.43
2023-04-28T00:48:39.415Z,9.65
2023-04-28T00:51:06.864Z,12.32
2023-04-28T00:53:34.151Z,11.30
2023-04-28T00:56:01.252Z,10.80
2023-04-28T00:58:29.616Z,11.10
2023-04-28T01:01:07.310Z,9.18
2023-04-28T01:03:39.786Z,12.30
2023-04-28T01:06:08.721Z,8.38
2023-04-28T01:08:37.934Z,8.52
2023-04-28T01:11:07.377Z,13.60
2023-04-28T01:13:54.695Z,13.32
2023-04-28T01:16:22.726Z,12.52
2023-04-28T01:18:50.181Z,10.63
2023-04-28T01:21:32.904Z,9.45
2023-04-28T01:24:07.175Z,10.90
2023-04-28T01:26:34.116Z,9.07
2023-04-28T01:29:01.736Z,11.15
2023-04-28T01:31:31.182Z,10.95
2023-04-28T01:33:58.448Z,9.80
2023-04-28T01:36:27.402Z,10.43
2023-04-28T01:38:55.040Z,8.68
2023-04-28T01:41:22.567Z,10.32
2023-04-28T01:43:49.483Z,12.35
2023-04-28T01:46:16.631Z,9.98
2023-04-28T01:48:43.419Z,10.80
2023-04-28T01:51:11.425Z,11.88
2023-04-28T01:53:38.927Z,8.55
2023-04-28T01:56:05.988Z,13.02
2023-04-28T01:58:34.597Z,12.35
2023-04-28T02:01:01.422Z,12.80
2023-04-28T02:03:28.790Z,11.90
2023-04-28T02:05:56.660Z,9.68
2023-04-28T02:08:23.524Z,8.30
2023-04-28T02:10:52.312Z,10.07
2023-04-28T02:13:22.286Z,12.18
2023-04-28T02:15:49.183Z,13.63
2023-04-28T02:18:16.306Z,15.68
2023-04-28T02:20:43.214Z,12.23
2023-04-28T02:23:10.318Z,10.90
2023-04-28T02:25:37.177Z,11.55
2023-04-28T02:28:04.236Z,11.95
2023-04-28T02:30:34.700Z,12.00
2023-04-28T02:33:01.622Z,12.95
2023-04-28T02:35:28.664Z,10.38
2023-04-28T02:37:55.574Z,10.50
2023-04-28T02:40:22.489Z,12.23
2023-04-28T02:42:49.288Z,10.77
2023-04-28T02:45:16.348Z,14.07
2023-04-28T02:47:43.365Z,12.25
2023-04-28T02:50:10.929Z,11.48
2023-04-28T02:52:38.260Z,12.38
2023-04-28T02:55:05.848Z,10.85
2023-04-28T02:57:33.027Z,12.45
2023-04-28T03:00:00.749Z,13.48
2023-04-28T03:02:33.139Z,9.48
2023-04-28T03:05:00.156Z,11.27
2023-04-28T03:07:28.263Z,13.65
2023-04-28T03:09:55.067Z,13.13
2023-04-28T03:12:21.929Z,12.35
2023-04-28T03:14:48.841Z,15.57
2023-04-28T03:17:17.637Z,13.25
2023-04-28T03:19:44.483Z,8.18
2023-04-28T03:22:11.748Z,10.75
2023-04-28T03:24:38.648Z,11.32
2023-04-28T03:27:05.987Z,14.98
2023-04-28T03:29:33.055Z,14.10
2023-04-28T03:32:00.239Z,10.30
2023-04-28T03:34:28.049Z,11.45
2023-04-28T03:36:55.409Z,10.25
2023-04-28T03:39:27.776Z,11.88
2023-04-28T03:41:54.723Z,11.43
2023-04-28T03:44:36.576Z,11.13
2023-04-28T03:47:04.318Z,13.70
2023-04-28T03:49:31.249Z,11.82
2023-04-28T03:51:58.243Z,16.98
2023-04-28T03:54:26.126Z,9.40
2023-04-28T03:56:53.245Z,14.15
2023-04-28T03:59:20.069Z,9.48
2023-04-28T04:01:47.061Z,10.40
2023-04-28T04:04:14.033Z,12.50
2023-04-28T04:06:41.198Z,13.82
2023-04-28T04:09:10.162Z,13.07
2023-04-28T04:11:38.287Z,9.93
2023-04-28T04:14:06.318Z,10.93
2023-04-28T04:16:33.436Z,11.23
2023-04-28T04:19:00.457Z,12.00
2023-04-28T04:21:33.168Z,9.43
2023-04-28T04:24:01.503Z,12.73
2023-04-28T04:26:28.938Z,10.45
2023-04-28T04:28:56.297Z,9.60
2023-04-28T04:31:24.687Z,11.20
2023-04-28T04:33:52.031Z,10.43
2023-04-28T04:36:20.931Z,12.50
2023-04-28T04:38:47.883Z,10.63
2023-04-28T04:41:22.828Z,10.18
2023-04-28T04:43:55.907Z,11.52
2023-04-28T04:46:28.652Z,10.30
2023-04-28T04:48:55.742Z,15.95
2023-04-28T04:51:23.723Z,12.98
2023-04-28T04:53:50.579Z,11.45
2023-04-28T04:56:17.607Z,11.70
2023-04-28T04:58:47.059Z,11.25
2023-04-28T05:01:36.696Z,15.32
2023-04-28T05:04:03.841Z,9.05
2023-04-28T05:06:31.837Z,12.02
2023-04-28T05:08:59.378Z,13.15
2023-04-28T05:11:26.950Z,10.38
2023-04-28T05:13:53.789Z,10.95
2023-04-28T05:16:21.160Z,14.43
2023-04-28T05:18:48.480Z,14.20
2023-04-28T05:21:15.988Z,12.38
2023-04-28T05:23:43.190Z,10.40
2023-04-28T05:26:10.734Z,10.73
2023-04-28T05:28:37.580Z,12.98
2023-04-28T05:31:04.569Z,11.30
2023-04-28T05:33:32.728Z,13.10
2023-04-28T05:35:59.663Z,13.13
2023-04-28T05:38:26.898Z,11.18
2023-04-28T05:40:55.496Z,15.05
2023-04-28T05:43:22.468Z,11.18
2023-04-28T05:45:52.589Z,14.65
2023-04-28T05:48:20.241Z,14.18
2023-04-28T05:50:47.330Z,14.85
2023-04-28T05:53:15.720Z,15.25
2023-04-28T05:55:42.900Z,11.38
2023-04-28T05:58:10.374Z,13.98
2023-04-28T06:00:38.086Z,10.32
2023-04-28T06:03:07.113Z,11.13
2023-04-28T06:05:34.384Z,9.73
2023-04-28T06:08:01.655Z,13.75
2023-04-28T06:10:28.550Z,9.85
2023-04-28T06:12:57.988Z,13.25
2023-04-28T06:15:24.927Z,11.98
2023-04-28T06:17:51.985Z,11.52
2023-04-28T06:20:19.119Z,13.55
2023-04-28T06:22:46.159Z,10.30
2023-04-28T06:25:12.988Z,11.35
2023-04-28T06:27:45.141Z,12.52
2023-04-28T06:30:18.331Z,11.85
2023-04-28T06:35:14.440Z,10.52
2023-04-28T06:37:42.508Z,12.45
2023-04-28T06:40:10.134Z,16.75
2023-04-28T06:42:40.656Z,13.60
2023-04-28T06:45:11.974Z,12.88
2023-04-28T06:47:40.789Z,11.65
2023-04-28T06:50:09.872Z,12.88
2023-04-28T06:52:39.754Z,13.68
2023-04-28T06:55:10.767Z,12.40
2023-04-28T06:57:38.342Z,17.75
2023-04-28T07:00:06.765Z,12.65
2023-04-28T07:02:35.228Z,9.52
2023-04-28T07:05:05.445Z,14.52
2023-04-28T07:07:33.244Z,9.73
2023-04-28T07:10:01.062Z,12.60
2023-04-28T07:12:31.182Z,10.05
2023-04-28T07:14:58.359Z,10.45
2023-04-28T07:17:25.327Z,15.13
2023-04-28T07:19:52.363Z,10.98
2023-04-28T07:22:19.677Z,12.52
2023-04-28T07:24:46.541Z,17.00
2023-04-28T07:27:14.493Z,13.52
2023-04-28T07:29:41.394Z,13.73
2023-04-28T07:32:10.716Z,11.05
2023-04-28T07:34:38.264Z,15.40
2023-04-28T07:37:05.727Z,14.07
2023-04-28T07:39:34.963Z,14.23
2023-04-28T07:42:03.494Z,14.05
2023-04-28T07:44:31.709Z,13.05
2023-04-28T07:47:01.997Z,12.30
2023-04-28T07:49:32.208Z,17.17
2023-04-28T07:51:59.259Z,10.68
2023-04-28T07:54:27.448Z,18.45
2023-04-28T07:56:58.168Z,13.20
2023-04-28T07:59:26.837Z,13.82
2023-04-28T08:01:54.994Z,13.13
2023-04-28T08:04:22.211Z,11.40
2023-04-28T08:06:49.908Z,9.93
2023-04-28T08:09:16.879Z,15.45
2023-04-28T08:11:43.710Z,14.27
2023-04-28T08:14:10.562Z,11.00
2023-04-28T08:16:40.465Z,10.32
2023-04-28T08:19:07.696Z,11.55
2023-04-28T08:21:37.520Z,12.32
2023-04-28T08:24:04.706Z,12.52
2023-04-28T08:26:32.318Z,10.05
2023-04-28T08:28:59.271Z,12.20
2023-04-28T08:31:26.308Z,10.82
2023-04-28T08:33:54.417Z,13.43
2023-04-28T08:36:23.673Z,9.68
2023-04-28T08:38:50.480Z,10.35
2023-04-28T08:41:18.172Z,12.55
2023-04-28T08:43:45.708Z,14.10
2023-04-28T08:46:14.814Z,9.95
2023-04-28T08:48:45.287Z,13.43
2023-04-28T08:51:17.248Z,12.32
2023-04-28T08:54:14.990Z,12.20
2023-04-28T08:56:39.493Z,10.10
2023-04-28T08:59:06.752Z,16.25
2023-04-28T09:01:33.796Z,19.60
2023-04-28T09:04:06.825Z,10.10
2023-04-28T09:06:36.322Z,13.07
2023-04-28T09:09:23.644Z,15.43
2023-04-28T09:12:04.939Z,11.77
2023-04-28T09:14:36.934Z,14.00
2023-04-28T09:17:14.382Z,10.90
2023-04-28T09:19:45.911Z,11.63
2023-04-28T09:24:47.367Z,8.70
2023-04-28T09:27:15.546Z,11.82
2023-04-28T09:29:53.573Z,11.82
2023-04-28T09:32:24.831Z,11.30
2023-04-28T09:34:53.971Z,10.75
2023-04-28T09:37:23.413Z,12.10
2023-04-28T09:39:52.004Z,12.82
2023-04-28T09:42:40.918Z,9.13
2023-04-28T09:45:10.159Z,8.68
2023-04-28T09:47:40.884Z,9.63
2023-04-28T09:50:14.606Z,8.60
2023-04-28T09:52:57.946Z,8.32
2023-04-28T09:55:25.467Z,9.38
2023-04-28T09:57:55.871Z,7.78
2023-04-28T10:00:23.956Z,11.80
2023-04-28T10:02:52.321Z,9.95
2023-04-28T10:05:22.006Z,9.52
2023-04-28T10:07:49.600Z,9.55
2023-04-28T10:10:17.118Z,9.82
2023-04-28T10:12:44.949Z,9.10
2023-04-28T10:15:13.288Z,7.05
2023-04-28T10:17:40.734Z,8.75
2023-04-28T10:20:09.421Z,7.78
2023-04-28T10:23:13.806Z,15.63
2023-04-28T10:25:42.566Z,12.40
2023-04-28T10:28:10.763Z,10.60
2023-04-28T10:30:38.166Z,10.10
2023-04-28T10:33:14.426Z,5.82
2023-04-28T10:35:44.507Z,5.38
2023-04-28T10:38:22.971Z,11.30
2023-04-28T10:40:51.617Z,5.07
2023-04-28T10:43:33.281Z,5.38
2023-04-28T10:46:05.050Z,5.70
2023-04-28T10:48:35.086Z,6.90
2023-04-28T10:51:08.075Z,10.50
2023-04-28T10:53:45.766Z,9.30
2023-04-28T10:56:21.442Z,9.15
2023-04-28T10:58:50.700Z,11.17
2023-04-28T11:01:34.600Z,8.13
2023-04-28T11:04:13.220Z,6.40
2023-04-28T11:06:45.906Z,5.97
2023-04-28T11:09:15.719Z,5.18
2023-04-28T11:12:01.270Z,5.07
2023-04-28T11:14:43.278Z,5.50
2023-04-28T11:17:17.462Z,6.43
2023-04-28T11:22:17.522Z,6.85
2023-04-28T11:25:02.721Z,6.68
2023-04-28T11:27:34.589Z,4.50
2023-04-28T11:30:02.164Z,6.07
2023-04-28T11:32:35.350Z,6.78
2023-04-28T11:35:04.837Z,8.13
2023-04-28T11:37:33.502Z,6.70
2023-04-28T11:40:11.411Z,10.10
2023-04-28T11:42:46.762Z,8.02
2023-04-28T11:45:13.839Z,5.63
2023-04-28T11:47:40.951Z,9.63
2023-04-28T11:50:08.349Z,8.20
2023-04-28T11:52:35.382Z,4.95
2023-04-28T11:55:02.560Z,8.50
2023-04-28T11:57:30.857Z,10.18
2023-04-28T12:00:22.208Z,4.28
2023-04-28T12:02:49.805Z,9.50
2023-04-28T12:05:17.220Z,4.88
2023-04-28T12:07:45.724Z,4.88
2023-04-28T12:10:14.423Z,7.75
2023-04-28T12:12:51.069Z,6.90
2023-04-28T12:15:20.667Z,10.85
2023-04-28T12:17:48.728Z,5.85
2023-04-28T12:20:38.588Z,7.40
2023-04-28T12:23:11.051Z,7.25
2023-04-28T12:25:45.441Z,4.72
2023-04-28T12:28:12.620Z,10.00
2023-04-28T12:30:42.253Z,5.75
2023-04-28T12:33:27.055Z,6.95
2023-04-28T12:35:56.017Z,9.50
2023-04-28T12:38:23.949Z,10.57
2023-04-28T12:40:55.625Z,10.18
2023-04-28T12:43:28.961Z,8.00
2023-04-28T12:45:56.966Z,5.20
2023-04-28T12:48:25.260Z,10.23
2023-04-28T12:50:52.562Z,4.75
2023-04-28T12:53:19.595Z,6.80
2023-04-28T12:55:46.624Z,6.80
2023-04-28T12:58:22.509Z,8.95
2023-04-28T13:00:51.812Z,8.98
2023-04-28T13:03:19.994Z,4.00
2023-04-28T13:05:49.619Z,6.15
2023-04-28T13:08:16.455Z,7.97
2023-04-28T13:10:43.604Z,7.88
2023-04-28T13:13:12.645Z,7.47
2023-04-28T13:15:39.536Z,6.53
2023-04-28T13:18:06.566Z,6.43
2023-04-28T13:20:33.453Z,6.38
2023-04-28T13:23:07.581Z,4.72
2023-04-28T13:25:34.736Z,6.47
2023-04-28T13:28:08.371Z,8.70
2023-04-28T13:30:35.606Z,12.73
2023-04-28T13:33:02.618Z,7.88
2023-04-28T13:35:29.545Z,8.85
2023-04-28T13:38:01.852Z,6.18
2023-04-28T13:40:29.783Z,5.15
2023-04-28T13:42:56.750Z,8.80
2023-04-28T13:45:23.544Z,4.25
2023-04-28T13:47:51.201Z,5.47
2023-04-28T13:50:18.202Z,8.68
2023-04-28T13:52:45.069Z,4.88
2023-04-28T13:55:12.252Z,6.05
2023-04-28T13:57:39.062Z,5.13
2023-04-28T14:00:06.633Z,6.28
2023-04-28T14:02:35.100Z,5.30
2023-04-28T14:05:03.075Z,8.75
2023-04-28T14:07:31.059Z,8.68
2023-04-28T14:09:57.951Z,15.13
2023-04-28T14:12:25.360Z,7.30
2023-04-28T14:14:52.204Z,13.38
2023-04-28T14:17:19.061Z,6.03
2023-04-28T14:19:46.420Z,4.95
2023-04-28T14:22:13.530Z,9.10
2023-04-28T14:24:42.153Z,4.70
2023-04-28T14:27:09.664Z,7.53
2023-04-28T14:29:36.443Z,4.32
2023-04-28T14:32:03.398Z,7.10
2023-04-28T14:34:30.349Z,8.88
2023-04-28T14:36:57.299Z,6.38
2023-04-28T14:39:24.496Z,4.90
2023-04-28T14:41:51.448Z,3.97
2023-04-28T14:44:18.268Z,6.18
2023-04-28T14:46:45.206Z,3.67
2023-04-28T14:49:12.226Z,4.10
2023-04-28T14:51:39.076Z,7.88
2023-04-28T14:54:06.003Z,4.53
2023-04-28T14:56:33.956Z,13.45
2023-04-28T14:59:01.084Z,7.20
2023-04-28T15:01:28.188Z,7.03
2023-04-28T15:03:55.646Z,7.32
2023-04-28T15:06:22.858Z,8.20
2023-04-28T15:08:49.753Z,5.22
2023-04-28T15:11:17.578Z,11.23
2023-04-28T15:13:44.397Z,8.45
2023-04-28T15:16:11.397Z,10.75
2023-04-28T15:18:39.619Z,6.22
2023-04-28T15:21:07.009Z,4.43
2023-04-28T15:23:35.168Z,5.32
2023-04-28T15:26:02.591Z,6.10
2023-04-28T15:28:29.548Z,6.43
2023-04-28T15:30:56.990Z,7.32
2023-04-28T15:33:25.016Z,8.60
2023-04-28T15:35:52.531Z,4.55
2023-04-28T15:38:19.383Z,9.32
2023-04-28T15:40:46.877Z,9.35
2023-04-28T15:43:13.836Z,5.80
2023-04-28T15:45:41.027Z,8.73
2023-04-28T15:48:09.237Z,8.65
2023-04-28T15:50:37.616Z,4.22
2023-04-28T15:53:04.541Z,7.80
2023-04-28T15:55:31.485Z,7.93
2023-04-28T15:57:59.379Z,7.35
2023-04-28T16:00:26.454Z,6.85
2023-04-28T16:02:53.374Z,6.28
2023-04-28T16:05:20.490Z,8.95
2023-04-28T16:07:47.610Z,6.53
2023-04-28T16:10:16.608Z,3.95
2023-04-28T16:12:44.005Z,6.22
2023-04-28T16:15:13.097Z,5.75
2023-04-28T16:17:41.537Z,6.18
2023-04-28T16:20:10.240Z,8.38
2023-04-28T16:22:38.769Z,7.55
2023-04-28T16:25:06.557Z,6.72
2023-04-28T16:27:35.643Z,5.43
2023-04-28T16:30:03.534Z,4.72
2023-04-28T16:32:36.330Z,6.72
2023-04-28T16:35:06.368Z,7.82
2023-04-28T16:37:33.729Z,3.97
2023-04-28T16:40:00.706Z,8.07
2023-04-28T16:42:27.689Z,3.97
2023-04-28T16:44:55.072Z,8.15
2023-04-28T16:47:22.250Z,4.57
2023-04-28T16:49:49.285Z,9.93
2023-04-28T16:52:16.748Z,5.63
2023-04-28T16:54:43.624Z,7.03
2023-04-28T16:57:10.792Z,9.20
2023-04-28T16:59:46.624Z,6.30
2023-04-28T17:02:13.519Z,7.88
2023-04-28T17:04:40.690Z,6.65
2023-04-28T17:07:07.828Z,5.95
2023-04-28T17:09:34.748Z,8.18
2023-04-28T17:12:03.889Z,5.88
2023-04-28T17:14:31.175Z,8.43
2023-04-28T17:16:58.157Z,4.13
2023-04-28T17:19:25.064Z,7.63
2023-04-28T17:21:52.885Z,6.75
2023-04-28T17:24:19.788Z,11.88
2023-04-28T17:26:47.129Z,7.70
2023-04-28T17:29:14.261Z,10.27
2023-04-28T17:31:43.448Z,9.07
2023-04-28T17:34:10.551Z,5.90
2023-04-28T17:36:38.141Z,5.90
2023-04-28T17:39:07.677Z,5.07
2023-04-28T17:41:34.606Z,9.38
2023-04-28T17:44:01.734Z,5.60
2023-04-28T17:46:28.902Z,7.45
2023-04-28T17:48:56.081Z,7.47
2023-04-28T17:51:23.108Z,5.50
2023-04-28T17:53:50.062Z,6.22
2023-04-28T17:56:17.089Z,7.10
2023-04-28T17:58:43.965Z,8.73
2023-04-28T18:01:10.894Z,8.32
2023-04-28T18:03:39.297Z,6.45
2023-04-28T18:06:08.436Z,9.25
2023-04-28T18:08:36.883Z,8.52
2023-04-28T18:11:04.880Z,10.77
2023-04-28T18:13:32.795Z,11.27
2023-04-28T18:16:00.082Z,17.33
2023-04-28T18:18:30.046Z,8.15
2023-04-28T18:20:59.225Z,15.50
2023-04-28T18:23:27.271Z,10.38
2023-04-28T18:25:54.106Z,12.00
2023-04-28T18:28:21.246Z,17.83
2023-04-28T18:30:48.169Z,16.05
2023-04-28T18:33:15.059Z,11.25
2023-04-28T18:35:41.912Z,14.23
2023-04-28T18:38:08.869Z,8.95
2023-04-28T18:40:40.814Z,11.35
2023-04-28T18:43:10.475Z,17.83
2023-04-28T18:45:41.192Z,11.38
2023-04-28T18:48:09.713Z,12.85
2023-04-28T18:50:36.979Z,14.48
2023-04-28T18:53:05.079Z,17.10
2023-04-28T18:55:36.927Z,16.85
2023-04-28T19:00:36.878Z,12.13
2023-04-28T19:03:04.823Z,11.98
2023-04-28T19:05:31.980Z,12.48
2023-04-28T19:07:58.812Z,16.15
2023-04-28T19:10:25.868Z,16.08
2023-04-28T19:12:52.850Z,16.20
2023-04-28T19:15:19.773Z,11.82
2023-04-28T19:17:46.682Z,11.25
2023-04-28T19:20:13.807Z,12.50
2023-04-28T19:22:41.801Z,11.05
2023-04-28T19:25:08.991Z,12.52
2023-04-28T19:27:37.754Z,11.65
2023-04-28T19:30:07.389Z,11.27
2023-04-28T19:32:36.822Z,9.60
2023-04-28T19:35:04.800Z,12.65
2023-04-28T19:37:37.107Z,13.00
2023-04-28T19:40:59.511Z,9.05
2023-04-28T19:44:03.492Z,10.35
2023-04-28T19:46:30.558Z,11.68
2023-04-28T19:49:00.642Z,12.60
2023-04-28T19:51:27.908Z,11.52
2023-04-28T19:53:59.742Z,11.00
2023-04-28T19:56:27.290Z,10.48
2023-04-28T19:58:54.205Z,8.32
2023-04-28T20:01:21.233Z,10.10
2023-04-28T20:03:49.387Z,10.48
2023-04-28T20:06:17.700Z,11.52
2023-04-28T20:08:45.775Z,13.52
2023-04-28T20:11:12.819Z,22.40
2023-04-28T20:13:39.724Z,25.13
2023-04-28T20:16:07.328Z,20.25
2023-04-28T20:18:36.248Z,13.43
2023-04-28T20:21:06.600Z,13.50
2023-04-28T20:23:38.078Z,15.18
2023-04-28T20:26:15.562Z,15.23
2023-04-28T20:28:46.500Z,12.48
2023-04-28T20:31:16.555Z,9.95
2023-04-28T20:33:43.465Z,14.05
2023-04-28T20:36:11.172Z,18.85
2023-04-28T20:38:40.090Z,12.38
2023-04-28T20:41:10.602Z,14.40
2023-04-28T20:43:44.730Z,15.23
2023-04-28T20:46:13.798Z,14.75
2023-04-28T20:48:42.406Z,14.27
2023-04-28T20:51:10.884Z,13.60
2023-04-28T20:53:41.011Z,13.60
2023-04-28T20:56:11.889Z,12.55
2023-04-28T20:58:42.411Z,14.98
2023-04-28T21:01:10.786Z,16.10
2023-04-28T21:03:38.265Z,12.23
2023-04-28T21:06:09.035Z,13.35
2023-04-28T21:08:40.996Z,11.43
2023-04-28T21:11:16.037Z,15.75
2023-04-28T21:13:43.887Z,13.85
2023-04-28T21:16:20.975Z,13.85
2023-04-28T21:18:49.424Z,15.57
2023-04-28T21:21:16.952Z,12.75
2023-04-28T21:23:44.457Z,14.43
2023-04-28T21:26:15.751Z,13.77
2023-04-28T21:28:45.522Z,17.85
2023-04-28T21:31:14.222Z,19.50
2023-04-28T21:33:46.075Z,14.85
2023-04-28T21:36:19.530Z,15.52
2023-04-28T21:38:46.551Z,15.32
2023-04-28T21:41:15.986Z,15.98
2023-04-28T21:43:43.112Z,13.40
2023-04-28T21:46:12.675Z,13.88
2023-04-28T21:48:43.196Z,12.60
2023-04-28T21:51:14.566Z,14.98
2023-04-28T21:53:41.692Z,19.80
2023-04-28T21:56:08.554Z,12.52
2023-04-28T21:58:35.891Z,11.82
2023-04-28T22:01:05.233Z,14.20
2023-04-28T22:03:35.240Z,13.82
2023-04-28T22:06:03.301Z,17.40
2023-04-28T22:08:31.737Z,13.38
2023-04-28T22:10:58.787Z,15.32
2023-04-28T22:13:25.556Z,14.63
2023-04-28T22:15:54.161Z,19.27
2023-04-28T22:18:20.931Z,14.40
2023-04-28T22:20:47.802Z,12.35
2023-04-28T22:23:14.881Z,16.33
2023-04-28T22:25:41.925Z,14.63
2023-04-28T22:28:09.594Z,12.77
2023-04-28T22:30:36.835Z,18.50
2023-04-28T22:33:03.960Z,14.93
2023-04-28T22:35:30.937Z,15.02
2023-04-28T22:37:57.782Z,12.85
2023-04-28T22:40:24.581Z,14.43
2023-04-28T22:42:54.337Z,15.50
2023-04-28T22:45:22.458Z,16.70
2023-04-28T22:47:56.810Z,12.60
2023-04-28T22:50:25.259Z,13.30
2023-04-28T22:52:52.269Z,18.70
2023-04-28T22:55:23.441Z,14.35
2023-04-28T22:57:51.433Z,13.90
2023-04-28T23:00:18.823Z,16.75
2023-04-28T23:02:46.048Z,15.27
2023-04-28T23:05:18.061Z,14.55
2023-04-28T23:07:45.624Z,14.85
2023-04-28T23:10:14.784Z,12.52
2023-04-28T23:12:41.809Z,15.00
2023-04-28T23:15:09.029Z,16.13
2023-04-28T23:17:39.231Z,15.60
2023-04-28T23:20:06.689Z,14.13
2023-04-28T23:22:34.110Z,18.10
2023-04-28T23:25:01.423Z,15.57
2023-04-28T23:27:31.649Z,17.77
2023-04-28T23:29:58.810Z,13.73
2023-04-28T23:32:27.662Z,16.65
2023-04-28T23:34:54.807Z,18.52
2023-04-28T23:37:21.606Z,16.90
2023-04-28T23:39:48.789Z,17.23
2023-04-28T23:42:16.631Z,18.42
2023-04-28T23:44:43.939Z,18.67
2023-04-28T23:47:12.414Z,15.60
2023-04-28T23:49:42.318Z,16.90
2023-04-28T23:52:10.021Z,15.98
2023-04-28T23:54:41.474Z,14.52
2023-04-28T23:57:09.324Z,14.75
2023-04-28T23:59:36.206Z,16.45
